createdAt,value
2023-11-16T00:01:39.086Z,94492.06
2023-11-16T00:04:07.568Z,94490.75
2023-11-16T00:06:34.538Z,94486.59
2023-11-16T00:09:01.919Z,94483.94
2023-11-16T00:11:30.833Z,94472.69
2023-11-16T00:13:57.617Z,94485.81
2023-11-16T00:16:24.630Z,94472.19
2023-11-16T00:18:52.492Z,94490.63
2023-11-16T00:21:19.570Z,94488.75
2023-11-16T00:23:46.424Z,94485.13
2023-11-16T00:26:15.503Z,94483.72
2023-11-16T00:28:51.802Z,94485.31
2023-11-16T00:31:18.643Z,94485.59
2023-11-16T00:33:47.330Z,94483.03
2023-11-16T00:36:14.372Z,94483.44
2023-11-16T00:38:41.159Z,94492.72
2023-11-16T00:41:08.640Z,94478.81
2023-11-16T00:43:36.183Z,94469.56
2023-11-16T00:46:05.721Z,94476.25
2023-11-16T00:48:35.560Z,94472.50
2023-11-16T00:51:02.630Z,94469.06
2023-11-16T00:53:30.968Z,94474.00
2023-11-16T00:55:57.895Z,94476.16
2023-11-16T00:58:24.642Z,94475.97
2023-11-16T01:00:52.821Z,94472.78
2023-11-16T01:03:20.276Z,94470.44
2023-11-16T01:05:47.284Z,94476.53
2023-11-16T01:08:17.431Z,94469.75
2023-11-16T01:10:44.635Z,94470.59
2023-11-16T01:13:12.340Z,94474.34
2023-11-16T01:15:40.111Z,94463.00
2023-11-16T01:18:11.984Z,94476.56
2023-11-16T01:20:42.344Z,94469.69
2023-11-16T01:23:13.549Z,94478.94
2023-11-16T01:25:42.135Z,94479.16
2023-11-16T01:28:09.562Z,94465.94
2023-11-16T01:30:36.463Z,94469.09
2023-11-16T01:33:05.554Z,94459.63
2023-11-16T01:35:33.206Z,94467.53
2023-11-16T01:38:00.055Z,94463.56
2023-11-16T01:40:28.547Z,94453.50
2023-11-16T01:42:59.138Z,94457.47
2023-11-16T01:45:34.192Z,94460.84
2023-11-16T01:48:09.675Z,94458.69
2023-11-16T01:50:39.577Z,94459.47
2023-11-16T01:53:14.544Z,94452.34
2023-11-16T01:55:45.460Z,94456.09
2023-11-16T01:58:12.457Z,94450.78
2023-11-16T02:00:44.219Z,94451.00
2023-11-16T02:03:12.357Z,94456.09
2023-11-16T02:05:39.254Z,94461.81
2023-11-16T02:08:11.138Z,94467.31
2023-11-16T02:10:39.751Z,94456.16
2023-11-16T02:13:19.439Z,94456.00
2023-11-16T02:15:46.575Z,94452.81
2023-11-16T02:18:15.995Z,94453.03
2023-11-16T02:20:43.091Z,94458.84
2023-11-16T02:23:10.063Z,94451.66
2023-11-16T02:25:46.908Z,94445.13
2023-11-16T02:28:14.971Z,94442.28
2023-11-16T02:30:41.860Z,94444.13
2023-11-16T02:33:09.064Z,94440.47
2023-11-16T02:35:36.611Z,94449.75
2023-11-16T02:38:11.174Z,94437.03
2023-11-16T02:40:38.259Z,94429.13
2023-11-16T02:43:05.120Z,94436.63
2023-11-16T02:45:34.132Z,94432.38
2023-11-16T02:48:01.764Z,94433.38
2023-11-16T02:50:29.221Z,94444.22
2023-11-16T02:52:56.520Z,94432.22
2023-11-16T02:55:26.350Z,94443.28
2023-11-16T02:57:56.738Z,94440.91
2023-11-16T03:00:24.112Z,94441.97
2023-11-16T03:02:51.681Z,94440.41
2023-11-16T03:05:22.333Z,94439.81
2023-11-16T03:07:53.957Z,94442.69
2023-11-16T03:10:21.232Z,94443.19
2023-11-16T03:12:49.321Z,94441.63
2023-11-16T03:15:16.275Z,94437.28
2023-11-16T03:17:46.208Z,94418.78
2023-11-16T03:20:15.138Z,94423.00
2023-11-16T03:22:41.929Z,94424.59
2023-11-16T03:25:09.485Z,94422.41
2023-11-16T03:27:36.745Z,94416.78
2023-11-16T03:30:05.371Z,94420.75
2023-11-16T03:32:32.311Z,94410.41
2023-11-16T03:34:59.281Z,94416.44
2023-11-16T03:37:26.528Z,94411.91
2023-11-16T03:39:53.297Z,94413.19
2023-11-16T03:42:21.712Z,94412.41
2023-11-16T03:44:51.029Z,94408.94
2023-11-16T03:47:18.056Z,94401.25
2023-11-16T03:49:44.879Z,94385.03
2023-11-16T03:52:11.665Z,94388.69
2023-11-16T03:54:39.361Z,94389.97
2023-11-16T03:57:06.256Z,94393.72
2023-11-16T03:59:33.051Z,94384.34
2023-11-16T04:02:00.258Z,94379.81
2023-11-16T04:04:30.225Z,94381.88
2023-11-16T04:06:57.137Z,94373.59
2023-11-16T04:09:25.452Z,94357.94
2023-11-16T04:11:54.828Z,94365.03
2023-11-16T04:14:21.624Z,94367.69
2023-11-16T04:16:54.126Z,94374.69
2023-11-16T04:19:22.531Z,94381.78
2023-11-16T04:21:51.981Z,94366.34
2023-11-16T04:24:19.230Z,94366.53
2023-11-16T04:26:46.437Z,94370.28
2023-11-16T04:29:15.559Z,94364.38
2023-11-16T04:31:43.944Z,94373.06
2023-11-16T04:34:12.324Z,94374.13
2023-11-16T04:36:42.822Z,94377.59
2023-11-16T04:39:11.046Z,94387.31
2023-11-16T04:41:38.688Z,94384.97
2023-11-16T04:44:06.420Z,94385.44
2023-11-16T04:46:33.337Z,94382.50
2023-11-16T04:49:01.685Z,94374.00
2023-11-16T04:51:28.641Z,94371.19
2023-11-16T04:53:55.507Z,94366.16
2023-11-16T04:56:22.232Z,94376.78
2023-11-16T04:58:49.896Z,94368.31
2023-11-16T05:01:18.147Z,94384.66
2023-11-16T05:03:46.238Z,94378.66
2023-11-16T05:06:14.855Z,94367.91
2023-11-16T05:08:45.168Z,94384.06
2023-11-16T05:11:12.036Z,94380.91
2023-11-16T05:13:38.786Z,94373.53
2023-11-16T05:16:06.089Z,94373.53
2023-11-16T05:18:33.415Z,94365.34
2023-11-16T05:21:05.573Z,94367.13
2023-11-16T05:23:32.458Z,94362.88
2023-11-16T05:26:00.924Z,94352.75
2023-11-16T05:28:27.935Z,94361.81
2023-11-16T05:30:54.811Z,94359.50
2023-11-16T05:33:24.423Z,94368.50
2023-11-16T05:35:55.740Z,94351.84
2023-11-16T05:38:24.149Z,94348.78
2023-11-16T05:40:53.841Z,94339.53
2023-11-16T05:43:21.372Z,94343.66
2023-11-16T05:45:48.730Z,94326.59
2023-11-16T05:48:16.690Z,94326.91
2023-11-16T05:50:44.237Z,94322.25
2023-11-16T05:53:12.582Z,94319.00
2023-11-16T05:55:39.737Z,94327.47
2023-11-16T05:58:10.790Z,94326.47
2023-11-16T06:00:38.972Z,94323.75
2023-11-16T06:03:07.354Z,94317.06
2023-11-16T06:05:35.182Z,94315.97
2023-11-16T06:08:02.080Z,94313.31
2023-11-16T06:10:29.060Z,94307.72
2023-11-16T06:12:56.923Z,94307.00
2023-11-16T06:15:26.423Z,94300.91
2023-11-16T06:17:59.277Z,94320.41
2023-11-16T06:20:26.298Z,94313.03
2023-11-16T06:22:53.060Z,94312.44
2023-11-16T06:25:19.880Z,94304.63
2023-11-16T06:27:47.125Z,94300.91
2023-11-16T06:30:15.014Z,94289.00
2023-11-16T06:32:45.530Z,94296.38
2023-11-16T06:35:12.864Z,94280.41
2023-11-16T06:37:39.837Z,94273.16
2023-11-16T06:40:10.530Z,94278.75
2023-11-16T06:42:39.249Z,94273.44
2023-11-16T06:45:08.058Z,94270.28
2023-11-16T06:47:36.681Z,94264.75
2023-11-16T06:50:07.008Z,94270.78
2023-11-16T06:52:37.723Z,94265.88
2023-11-16T06:55:06.301Z,94260.84
2023-11-16T06:57:34.910Z,94262.41
2023-11-16T07:00:02.921Z,94258.88
2023-11-16T07:02:30.312Z,94262.53
2023-11-16T07:04:57.236Z,94256.09
2023-11-16T07:07:24.324Z,94265.06
2023-11-16T07:09:51.625Z,94261.31
2023-11-16T07:12:22.120Z,94256.69
2023-11-16T07:14:54.473Z,94256.50
2023-11-16T07:17:22.569Z,94258.56
2023-11-16T07:19:50.074Z,94260.72
2023-11-16T07:22:17.070Z,94257.78
2023-11-16T07:24:46.091Z,94258.16
2023-11-16T07:27:14.945Z,94255.81
2023-11-16T07:29:44.636Z,94252.25
2023-11-16T07:32:12.955Z,94257.28
2023-11-16T07:34:41.004Z,94251.78
2023-11-16T07:37:08.242Z,94250.97
2023-11-16T07:39:35.647Z,94262.47
2023-11-16T07:42:02.880Z,94251.81
2023-11-16T07:44:29.701Z,94242.19
2023-11-16T07:46:56.679Z,94238.16
2023-11-16T07:49:24.382Z,94232.16
2023-11-16T07:51:55.362Z,94224.78
2023-11-16T07:54:23.038Z,94222.00
2023-11-16T07:57:02.603Z,94221.00
2023-11-16T07:59:35.922Z,94223.56
2023-11-16T08:02:03.088Z,94230.94
2023-11-16T08:04:33.287Z,94225.72
2023-11-16T08:07:01.531Z,94221.03
2023-11-16T08:09:31.039Z,94212.56
2023-11-16T08:12:00.475Z,94210.59
2023-11-16T08:14:27.552Z,94218.16
2023-11-16T08:16:58.134Z,94214.41
2023-11-16T08:19:32.925Z,94210.66
2023-11-16T08:22:03.020Z,94206.78
2023-11-16T08:24:30.178Z,94209.91
2023-11-16T08:27:00.151Z,94196.50
2023-11-16T08:29:27.190Z,94198.44
2023-11-16T08:31:58.404Z,94197.53
2023-11-16T08:34:29.287Z,94193.00
2023-11-16T08:36:56.942Z,94198.34
2023-11-16T08:39:24.968Z,94191.09
2023-11-16T08:41:54.476Z,94180.84
2023-11-16T08:44:23.836Z,94177.56
2023-11-16T08:46:57.401Z,94174.50
2023-11-16T08:49:24.764Z,94171.69
2023-11-16T08:52:00.906Z,94159.63
2023-11-16T08:54:30.030Z,94165.13
2023-11-16T08:56:58.827Z,94153.88
2023-11-16T08:59:26.854Z,94149.03
2023-11-16T09:01:53.883Z,94155.03
2023-11-16T09:04:22.248Z,94134.66
2023-11-16T09:06:51.764Z,94138.91
2023-11-16T09:09:38.244Z,94141.44
2023-11-16T09:12:14.467Z,94132.84
2023-11-16T09:14:42.497Z,94129.06
2023-11-16T09:17:18.479Z,94136.47
2023-11-16T09:19:45.613Z,94122.00
2023-11-16T09:22:13.166Z,94128.94
2023-11-16T09:24:42.642Z,94121.13
2023-11-16T09:27:09.530Z,94114.88
2023-11-16T09:29:40.903Z,94100.28
2023-11-16T09:32:11.871Z,94099.47
2023-11-16T09:34:39.206Z,94104.16
2023-11-16T09:37:06.048Z,94101.03
2023-11-16T09:39:33.817Z,94093.91
2023-11-16T09:42:03.613Z,94097.00
2023-11-16T09:44:30.551Z,94095.59
2023-11-16T09:47:04.336Z,94087.94
2023-11-16T09:49:32.320Z,94096.47
2023-11-16T09:52:00.960Z,94087.41
2023-11-16T09:54:30.410Z,94083.34
2023-11-16T09:57:03.956Z,94084.13
2023-11-16T09:59:39.213Z,94086.47
2023-11-16T10:02:11.745Z,94081.13
2023-11-16T10:04:43.144Z,94079.09
2023-11-16T10:07:17.164Z,94072.81
2023-11-16T10:09:44.853Z,94060.56
2023-11-16T10:12:12.759Z,94054.31
2023-11-16T10:14:52.777Z,94051.34
2023-11-16T10:17:26.597Z,94033.59
2023-11-16T10:19:53.754Z,94038.47
2023-11-16T10:22:20.606Z,94033.25
2023-11-16T10:24:51.134Z,94011.59
2023-11-16T10:27:18.857Z,94008.19
2023-11-16T10:29:46.419Z,93995.47
2023-11-16T10:32:13.530Z,93987.47
2023-11-16T10:34:41.888Z,93982.75
2023-11-16T10:37:10.659Z,93981.66
2023-11-16T10:39:40.463Z,93974.63
2023-11-16T10:42:09.554Z,93960.66
2023-11-16T10:44:38.577Z,93944.69
2023-11-16T10:47:08.965Z,93953.75
2023-11-16T10:49:36.252Z,93935.13
2023-11-16T10:52:07.026Z,93914.41
2023-11-16T10:54:41.264Z,93914.41
2023-11-16T10:57:08.228Z,93898.72
2023-11-16T10:59:36.399Z,93904.22
2023-11-16T11:02:06.475Z,93897.47
2023-11-16T11:04:34.243Z,93895.13
2023-11-16T11:07:01.176Z,93887.75
2023-11-16T11:09:57.366Z,93883.06
2023-11-16T11:12:26.127Z,93867.22
2023-11-16T11:14:53.711Z,93868.31
2023-11-16T11:17:20.712Z,93857.50
2023-11-16T11:20:00.825Z,93851.69
2023-11-16T11:22:30.156Z,93837.59
2023-11-16T11:24:57.726Z,93819.56
2023-11-16T11:27:29.286Z,93818.63
2023-11-16T11:29:58.245Z,93811.25
2023-11-16T11:32:38.741Z,93809.84
2023-11-16T11:35:13.378Z,93793.06
2023-11-16T11:37:40.474Z,93798.56
2023-11-16T11:40:09.434Z,93791.81
2023-11-16T11:42:41.953Z,93778.03
2023-11-16T11:45:09.160Z,93772.69
2023-11-16T11:47:36.409Z,93782.72
2023-11-16T11:50:03.984Z,93776.31
2023-11-16T11:52:31.669Z,93759.69
2023-11-16T11:54:58.536Z,93766.28
2023-11-16T11:57:31.744Z,93763.91
2023-11-16T12:00:08.876Z,93754.28
2023-11-16T12:02:35.947Z,93728.09
2023-11-16T12:05:03.578Z,93723.38
2023-11-16T12:07:30.551Z,93739.00
2023-11-16T12:09:57.536Z,93714.28
2023-11-16T12:12:24.443Z,93712.41
2023-11-16T12:14:52.874Z,93705.03
2023-11-16T12:17:22.547Z,93692.19
2023-11-16T12:19:50.180Z,93670.47
2023-11-16T12:22:19.107Z,93674.69
2023-11-16T12:24:49.927Z,93664.38
2023-11-16T12:27:18.105Z,93679.50
2023-11-16T12:30:00.549Z,93680.44
2023-11-16T12:32:27.963Z,93664.03
2023-11-16T12:34:55.032Z,93667.31
2023-11-16T12:37:23.378Z,93660.75
2023-11-16T12:39:51.923Z,93636.47
2023-11-16T12:42:24.436Z,93659.31
2023-11-16T12:44:52.490Z,93639.88
2023-11-16T12:47:22.563Z,93649.16
2023-11-16T12:49:53.661Z,93633.19
2023-11-16T12:52:21.869Z,93653.47
2023-11-16T12:54:48.695Z,93649.53
2023-11-16T12:57:15.528Z,93648.25
2023-11-16T12:59:42.244Z,93637.16
2023-11-16T13:02:11.619Z,93609.78
2023-11-16T13:04:39.846Z,93607.50
2023-11-16T13:07:07.085Z,93596.53
2023-11-16T13:09:33.940Z,93584.78
2023-11-16T13:12:08.386Z,93585.91
2023-11-16T13:14:44.032Z,93593.56
2023-11-16T13:17:11.174Z,93574.53
2023-11-16T13:19:39.141Z,93585.38
2023-11-16T13:22:06.353Z,93607.22
2023-11-16T13:24:33.220Z,93632.72
2023-11-16T13:27:00.054Z,93634.91
2023-11-16T13:29:27.975Z,93620.28
2023-11-16T13:31:55.379Z,93596.50
2023-11-16T13:34:22.653Z,93621.66
2023-11-16T13:36:49.454Z,93619.69
2023-11-16T13:39:17.179Z,93635.22
2023-11-16T13:41:48.620Z,93606.75
2023-11-16T13:44:15.732Z,93623.78
2023-11-16T13:46:42.578Z,93622.91
2023-11-16T13:49:09.694Z,93635.28
2023-11-16T13:51:40.613Z,93630.28
2023-11-16T13:54:08.692Z,93638.88
2023-11-16T13:56:35.670Z,93612.09
2023-11-16T13:59:02.653Z,93616.34
2023-11-16T14:01:30.877Z,93626.22
2023-11-16T14:03:58.146Z,93626.06
2023-11-16T14:06:25.531Z,93627.06
2023-11-16T14:08:53.389Z,93636.47
2023-11-16T14:11:21.642Z,93627.06
2023-11-16T14:13:48.498Z,93629.25
2023-11-16T14:16:16.390Z,93626.44
2023-11-16T14:18:43.511Z,93620.81
2023-11-16T14:21:11.084Z,93596.88
2023-11-16T14:23:41.388Z,93610.19
2023-11-16T14:26:10.581Z,93612.38
2023-11-16T14:28:37.393Z,93611.94
2023-11-16T14:31:04.627Z,93594.72
2023-11-16T14:33:31.800Z,93598.81
2023-11-16T14:35:59.339Z,93576.44
2023-11-16T14:38:26.134Z,93586.16
2023-11-16T14:40:52.936Z,93581.78
2023-11-16T14:43:19.681Z,93577.41
2023-11-16T14:45:47.761Z,93571.31
2023-11-16T14:48:16.307Z,93581.00
2023-11-16T14:50:43.270Z,93583.81
2023-11-16T14:53:11.744Z,93592.72
2023-11-16T14:55:39.997Z,93590.06
2023-11-16T14:58:06.782Z,93572.53
2023-11-16T15:00:33.999Z,93565.69
2023-11-16T15:03:01.302Z,93561.16
2023-11-16T15:05:35.213Z,93553.78
2023-11-16T15:08:05.207Z,93557.22
2023-11-16T15:10:31.985Z,93532.66
2023-11-16T15:12:58.850Z,93527.97
2023-11-16T15:15:25.864Z,93537.22
2023-11-16T15:17:53.094Z,93528.91
2023-11-16T15:20:26.555Z,93534.38
2023-11-16T15:22:57.597Z,93528.91
2023-11-16T15:25:28.642Z,93525.63
2023-11-16T15:27:56.288Z,93536.44
2023-11-16T15:30:23.217Z,93533.75
2023-11-16T15:32:51.773Z,93512.69
2023-11-16T15:35:19.175Z,93523.63
2023-11-16T15:37:48.069Z,93483.13
2023-11-16T15:40:15.379Z,93490.78
2023-11-16T15:42:42.904Z,93461.09
2023-11-16T15:45:13.230Z,93484.22
2023-11-16T15:47:40.158Z,93485.00
2023-11-16T15:50:07.395Z,93466.69
2023-11-16T15:52:34.428Z,93471.53
2023-11-16T15:55:01.399Z,93490.16
2023-11-16T15:57:29.927Z,93481.09
2023-11-16T16:00:00.575Z,93458.28
2023-11-16T16:02:31.610Z,93470.75
2023-11-16T16:05:01.099Z,93456.38
2023-11-16T16:07:28.620Z,93440.44
2023-11-16T16:09:57.365Z,93448.88
2023-11-16T16:12:24.441Z,93432.66
2023-11-16T16:14:51.203Z,93412.16
2023-11-16T16:17:19.382Z,93399.50
2023-11-16T16:19:46.172Z,93405.44
2023-11-16T16:22:16.179Z,93391.22
2023-11-16T16:24:43.982Z,93383.56
2023-11-16T16:27:11.845Z,93388.41
2023-11-16T16:29:38.777Z,93379.81
2023-11-16T16:32:07.796Z,93373.25
2023-11-16T16:34:34.765Z,93363.25
2023-11-16T16:37:01.593Z,93340.16
2023-11-16T16:39:28.551Z,93330.47
2023-11-16T16:41:57.344Z,93330.63
2023-11-16T16:44:25.841Z,93363.88
2023-11-16T16:46:52.809Z,93336.38
2023-11-16T16:49:20.352Z,93357.44
2023-11-16T16:51:48.065Z,93348.50
2023-11-16T16:54:17.171Z,93317.31
2023-11-16T16:56:45.623Z,93324.47
2023-11-16T16:59:15.316Z,93321.34
2023-11-16T17:01:42.455Z,93318.69
2023-11-16T17:04:09.354Z,93320.25
2023-11-16T17:06:36.345Z,93327.13
2023-11-16T17:09:03.330Z,93301.72
2023-11-16T17:11:30.280Z,93317.59
2023-11-16T17:13:57.052Z,93307.44
2023-11-16T17:16:24.092Z,93304.94
2023-11-16T17:18:52.129Z,93303.06
2023-11-16T17:21:22.602Z,93300.25
2023-11-16T17:23:52.501Z,93272.78
2023-11-16T17:26:20.948Z,93270.63
2023-11-16T17:28:49.523Z,93272.97
2023-11-16T17:31:17.657Z,93293.59
2023-11-16T17:33:44.509Z,93263.13
2023-11-16T17:36:12.266Z,93272.34
2023-11-16T17:38:39.255Z,93249.22
2023-11-16T17:41:07.000Z,93270.47
2023-11-16T17:43:36.311Z,93274.66
2023-11-16T17:46:04.248Z,93254.53
2023-11-16T17:48:32.127Z,93278.22
2023-11-16T17:50:59.861Z,93274.00
2023-11-16T17:53:26.676Z,93275.25
2023-11-16T17:55:54.842Z,93269.94
2023-11-16T17:58:25.153Z,93261.19
2023-11-16T18:00:51.998Z,93243.75
2023-11-16T18:03:18.867Z,93239.06
2023-11-16T18:05:45.842Z,93246.09
2023-11-16T18:08:13.209Z,93238.75
2023-11-16T18:10:45.167Z,93244.47
2023-11-16T18:13:20.697Z,93233.06
2023-11-16T18:15:49.309Z,93229.28
2023-11-16T18:18:17.931Z,93217.69
2023-11-16T18:20:45.195Z,93213.63
2023-11-16T18:23:11.958Z,93207.56
2023-11-16T18:25:41.563Z,93202.72
2023-11-16T18:28:14.382Z,93222.06
2023-11-16T18:30:44.026Z,93212.25
2023-11-16T18:33:12.101Z,93231.31
2023-11-16T18:35:42.348Z,93221.03
2023-11-16T18:38:12.408Z,93219.66
2023-11-16T18:40:41.204Z,93220.28
2023-11-16T18:43:11.618Z,93220.28
2023-11-16T18:45:39.317Z,93225.94
2023-11-16T18:48:10.706Z,93222.94
2023-11-16T18:50:43.883Z,93210.63
2023-11-16T18:53:11.815Z,93200.94
2023-11-16T18:55:39.905Z,93194.72
2023-11-16T18:58:08.317Z,93185.97
2023-11-16T19:00:36.877Z,93191.72
2023-11-16T19:03:15.788Z,93193.59
2023-11-16T19:05:44.474Z,93193.78
2023-11-16T19:08:14.162Z,93185.81
2023-11-16T19:10:42.755Z,93192.50
2023-11-16T19:13:10.613Z,93180.97
2023-11-16T19:15:38.015Z,93192.50
2023-11-16T19:18:06.882Z,93176.25
2023-11-16T19:20:36.568Z,93170.81
2023-11-16T19:23:04.793Z,93169.84
2023-11-16T19:25:36.811Z,93176.41
2023-11-16T19:28:04.403Z,93161.88
2023-11-16T19:30:31.783Z,93160.47
2023-11-16T19:32:58.865Z,93164.69
2023-11-16T19:35:25.727Z,93157.63
2023-11-16T19:37:53.354Z,93171.06
2023-11-16T19:40:30.607Z,93163.88
2023-11-16T19:43:07.316Z,93158.88
2023-11-16T19:45:38.550Z,93161.53
2023-11-16T19:48:06.785Z,93163.19
2023-11-16T19:50:39.377Z,93163.03
2023-11-16T19:53:07.705Z,93167.88
2023-11-16T19:55:37.828Z,93171.78
2023-11-16T19:58:06.828Z,93174.44
2023-11-16T20:00:34.598Z,93173.16
2023-11-16T20:03:03.357Z,93178.63
2023-11-16T20:05:30.698Z,93168.81
2023-11-16T20:07:57.475Z,93157.06
2023-11-16T20:10:28.045Z,93158.44
2023-11-16T20:12:55.058Z,93156.25
2023-11-16T20:15:24.106Z,93150.16
2023-11-16T20:17:51.147Z,93148.59
2023-11-16T20:20:25.388Z,93149.69
2023-11-16T20:22:53.954Z,93150.03
2023-11-16T20:25:21.933Z,93158.44
2023-11-16T20:27:50.249Z,93151.91
2023-11-16T20:30:18.999Z,93151.91
2023-11-16T20:32:51.991Z,93168.44
2023-11-16T20:35:19.535Z,93163.25
2023-11-16T20:37:48.326Z,93159.94
2023-11-16T20:40:18.975Z,93146.97
2023-11-16T20:42:51.013Z,93141.97
2023-11-16T20:45:18.589Z,93146.41
2023-11-16T20:47:48.091Z,93146.59
2023-11-16T20:50:15.949Z,93142.50
2023-11-16T20:52:46.203Z,93140.31
2023-11-16T20:55:13.537Z,93144.63
2023-11-16T20:57:40.941Z,93141.88
2023-11-16T21:00:19.792Z,93132.03
2023-11-16T21:02:48.521Z,93108.22
2023-11-16T21:05:16.597Z,93122.72
2023-11-16T21:07:44.495Z,93116.97
2023-11-16T21:10:13.163Z,93108.09
2023-11-16T21:12:40.574Z,93106.22
2023-11-16T21:15:11.254Z,93110.44
2023-11-16T21:17:38.793Z,93111.97
2023-11-16T21:20:09.679Z,93105.44
2023-11-16T21:22:36.842Z,93120.84
2023-11-16T21:25:04.100Z,93120.84
2023-11-16T21:27:31.018Z,93115.69
2023-11-16T21:29:57.758Z,93123.06
2023-11-16T21:32:24.650Z,93120.66
2023-11-16T21:34:51.443Z,93116.44
2023-11-16T21:37:18.474Z,93106.66
2023-11-16T21:39:45.331Z,93118.19
2023-11-16T21:42:12.498Z,93118.19
2023-11-16T21:44:39.340Z,93116.91
2023-11-16T21:47:06.442Z,93108.81
2023-11-16T21:49:33.282Z,93103.66
2023-11-16T21:52:00.634Z,93107.78
2023-11-16T21:54:27.541Z,93113.09
2023-11-16T21:56:55.301Z,93112.41
2023-11-16T21:59:22.279Z,93106.91
2023-11-16T22:01:50.010Z,93100.50
2023-11-16T22:04:18.180Z,93106.91
2023-11-16T22:06:45.857Z,93103.47
2023-11-16T22:09:15.093Z,93110.44
2023-11-16T22:11:42.467Z,93110.88
2023-11-16T22:14:10.769Z,93110.88
2023-11-16T22:16:37.708Z,93108.34
2023-11-16T22:19:05.832Z,93113.78
2023-11-16T22:21:34.936Z,93103.16
2023-11-16T22:24:02.105Z,93097.72
2023-11-16T22:26:30.529Z,93117.09
2023-11-16T22:28:59.531Z,93120.28
2023-11-16T22:31:26.905Z,93127.59
2023-11-16T22:33:54.423Z,93142.38
2023-11-16T22:36:21.340Z,93146.78
2023-11-16T22:38:48.326Z,93152.81
2023-11-16T22:41:15.662Z,93155.19
2023-11-16T22:43:43.570Z,93159.88
2023-11-16T22:46:10.583Z,93157.34
2023-11-16T22:48:37.521Z,93159.63
2023-11-16T22:51:07.762Z,93155.22
2023-11-16T22:53:36.368Z,93163.03
2023-11-16T22:56:05.359Z,93171.44
2023-11-16T22:58:34.049Z,93166.63
2023-11-16T23:01:01.878Z,93171.56
2023-11-16T23:03:29.142Z,93179.66
2023-11-16T23:05:57.477Z,93181.47
2023-11-16T23:08:24.732Z,93189.03
2023-11-16T23:10:53.973Z,93179.72
2023-11-16T23:13:21.462Z,93195.34
2023-11-16T23:15:49.057Z,93209.41
2023-11-16T23:18:16.228Z,93222.69
2023-11-16T23:20:44.010Z,93222.22
2023-11-16T23:23:11.098Z,93230.03
2023-11-16T23:25:45.719Z,93236.25
2023-11-16T23:28:17.815Z,93247.41
2023-11-16T23:30:44.836Z,93252.72
2023-11-16T23:33:12.259Z,93265.53
2023-11-16T23:35:39.358Z,93269.13
2023-11-16T23:38:07.099Z,93279.41
2023-11-16T23:40:34.011Z,93294.44
2023-11-16T23:43:01.099Z,93294.94
2023-11-16T23:45:28.277Z,93307.19
2023-11-16T23:47:57.189Z,93317.69
2023-11-16T23:50:25.149Z,93342.84
2023-11-16T23:52:53.185Z,93358.03
2023-11-16T23:55:20.220Z,93370.50
2023-11-16T23:57:47.148Z,93377.06
